createdAt,value
2023-03-25T00:02:58.470Z,6.6
2023-03-25T00:08:35.147Z,6.3
2023-03-25T00:13:55.658Z,6.4
2023-03-25T00:19:48.146Z,6.5
2023-03-25T00:25:08.632Z,6.6
2023-03-25T00:30:44.759Z,6.4
2023-03-25T00:36:22.193Z,6
2023-03-25T00:42:13.953Z,6.1
2023-03-25T00:47:50.708Z,6.4
2023-03-25T00:53:37.506Z,6.4
2023-03-25T00:59:28.776Z,6.3
2023-03-25T01:05:22.226Z,5.9
2023-03-25T01:10:58.614Z,5.9
2023-03-25T01:16:35.217Z,6.1
2023-03-25T01:22:12.048Z,5.9
2023-03-25T01:28:04.146Z,5.6
2023-03-25T01:33:56.112Z,5.2
2023-03-25T01:39:16.763Z,5.2
2023-03-25T01:44:48.607Z,5.1
2023-03-25T01:50:24.936Z,5
2023-03-25T01:56:16.196Z,4.8
2023-03-25T02:01:52.839Z,4.6
2023-03-25T02:07:29.364Z,4.6
2023-03-25T02:13:05.410Z,4.4
2023-03-25T02:18:57.757Z,4.2
2023-03-25T02:24:49.450Z,4.1
2023-03-25T02:30:24.799Z,4.3
2023-03-25T02:36:16.878Z,3.9
2023-03-25T02:41:53.161Z,3.8
2023-03-25T02:47:29.153Z,3.9
2023-03-25T02:53:21.162Z,3.8
2023-03-25T02:59:12.502Z,3.8
2023-03-25T03:05:04.022Z,3.9
2023-03-25T03:10:24.809Z,3.8
2023-03-25T03:16:00.627Z,3.7
2023-03-25T03:21:52.744Z,3.6
2023-03-25T03:27:44.669Z,3.6
2023-03-25T03:34:23.141Z,3.5
2023-03-25T03:40:14.397Z,3.6
2023-03-25T03:45:51.008Z,3.8
2023-03-25T03:51:42.901Z,3.9
2023-03-25T03:57:19.434Z,4
2023-03-25T04:03:11.329Z,4.1
2023-03-25T04:08:47.048Z,4.1
2023-03-25T04:14:38.402Z,4.4
2023-03-25T04:20:17.454Z,4.7
2023-03-25T04:25:53.923Z,4.7
2023-03-25T04:31:29.746Z,4.2
2023-03-25T04:37:21.902Z,4
2023-03-25T04:43:13.310Z,3.9
2023-03-25T04:48:33.968Z,4.1
2023-03-25T04:54:26.051Z,4.8
2023-03-25T05:00:17.955Z,5
2023-03-25T05:06:09.899Z,5.3
2023-03-25T05:12:01.430Z,5.6
2023-03-25T05:17:53.050Z,6.3
2023-03-25T05:23:29.295Z,6.9
2023-03-25T05:29:20.706Z,7.3
2023-03-25T05:35:13.774Z,7.5
2023-03-25T05:41:05.955Z,8.1
2023-03-25T05:46:43.213Z,8.6
2023-03-25T05:52:34.203Z,8.8
2023-03-25T05:58:30.138Z,9.4
2023-03-25T06:04:38.523Z,9.6
2023-03-25T06:10:29.091Z,10.2
2023-03-25T06:16:20.645Z,10.4
2023-03-25T06:22:12.149Z,10.9
2023-03-25T06:28:03.839Z,11.1
2023-03-25T06:34:16.626Z,11.6
2023-03-25T06:40:08.107Z,11.7
2023-03-25T06:45:44.158Z,12.1
2023-03-25T06:51:20.342Z,12.3
2023-03-25T06:57:12.138Z,12.5
2023-03-25T07:03:03.673Z,12.3
2023-03-25T07:08:56.760Z,12.6
2023-03-25T07:14:49.047Z,13.7
2023-03-25T07:20:46.618Z,13.8
2023-03-25T07:26:38.893Z,13.1
2023-03-25T07:32:31.486Z,13.8
2023-03-25T07:38:24.053Z,14.8
2023-03-25T07:44:18.180Z,15.5
2023-03-25T07:50:14.953Z,16.1
2023-03-25T07:56:07.994Z,16.4
2023-03-25T08:02:02.085Z,16.6
2023-03-25T08:07:56.489Z,17.4
2023-03-25T08:13:50.562Z,17.5
2023-03-25T08:19:42.871Z,18.2
2023-03-25T08:25:21.440Z,18.9
2023-03-25T08:31:14.457Z,17.9
2023-03-25T08:37:05.885Z,17.8
2023-03-25T08:42:42.180Z,17.6
2023-03-25T08:48:18.132Z,18.1
2023-03-25T08:53:53.419Z,18.1
2023-03-25T08:59:29.644Z,18.6
2023-03-25T09:05:25.119Z,19.7
2023-03-25T09:11:36.322Z,20.3
2023-03-25T09:17:29.039Z,19.9
2023-03-25T09:23:22.794Z,20.1
2023-03-25T09:29:15.327Z,19.8
2023-03-25T09:35:07.724Z,21.9
2023-03-25T09:40:44.662Z,22.7
2023-03-25T09:46:40.859Z,21.8
2023-03-25T09:52:35.906Z,21.5
2023-03-25T09:58:28.128Z,20.9
2023-03-25T10:04:05.410Z,21.4
2023-03-25T10:15:20.988Z,22.1
2023-03-25T10:21:12.891Z,22.3
2023-03-25T10:27:04.639Z,22.1
2023-03-25T10:32:56.676Z,22.4
2023-03-25T10:38:49.697Z,23.8
2023-03-25T10:44:41.844Z,24.6
2023-03-25T10:50:33.883Z,25.8
2023-03-25T10:56:25.469Z,26.4
2023-03-25T11:02:17.507Z,25.6
2023-03-25T11:08:22.133Z,25.1
2023-03-25T11:14:27.618Z,25.6
2023-03-25T11:20:08.212Z,24.8
2023-03-25T11:25:59.958Z,24.4
2023-03-25T11:31:51.931Z,25.4
2023-03-25T11:37:44.135Z,24.8
2023-03-25T11:43:36.549Z,24.2
2023-03-25T11:48:57.117Z,23.6
2023-03-25T11:54:33.611Z,22.3
2023-03-25T12:00:25.520Z,22.3
2023-03-25T12:05:47.245Z,21.8
2023-03-25T12:11:23.909Z,21.6
2023-03-25T12:17:18.871Z,20.9
2023-03-25T12:23:11.487Z,20.4
2023-03-25T12:28:47.535Z,20.8
2023-03-25T12:34:39.883Z,20.5
2023-03-25T12:40:48.648Z,20.5
2023-03-25T12:46:40.589Z,20.4
2023-03-25T12:52:19.955Z,20.9
2023-03-25T12:57:41.004Z,20.4
2023-03-25T13:03:34.666Z,20.3
2023-03-25T13:09:26.458Z,20.2
2023-03-25T13:15:24.771Z,19.9
2023-03-25T13:21:06.842Z,19.8
2023-03-25T13:27:01.152Z,19.4
2023-03-25T13:32:53.932Z,19
2023-03-25T13:38:30.875Z,18.4
2023-03-25T13:44:25.761Z,18.5
2023-03-25T13:49:47.836Z,18.4
2023-03-25T13:55:41.323Z,17.9
2023-03-25T14:01:33.932Z,18.1
2023-03-25T14:07:28.389Z,17.8
2023-03-25T14:13:20.544Z,16.9
2023-03-25T14:18:42.199Z,16.4
2023-03-25T14:24:22.913Z,16.3
2023-03-25T14:30:14.685Z,15.9
2023-03-25T14:36:08.784Z,15.3
2023-03-25T14:41:57.598Z,15.4
2023-03-25T14:47:33.884Z,15.6
2023-03-25T14:53:25.454Z,15.6
2023-03-25T14:59:18.942Z,15.6
2023-03-25T15:05:12.983Z,15.7
2023-03-25T15:10:49.106Z,15.7
2023-03-25T15:16:40.806Z,15.7
2023-03-25T15:22:32.927Z,15.7
2023-03-25T15:28:24.791Z,15.7
2023-03-25T15:34:16.671Z,15.6
2023-03-25T15:40:19.650Z,15.6
2023-03-25T15:46:23.654Z,15.7
2023-03-25T15:52:15.909Z,15.7
2023-03-25T15:58:12.845Z,15.5
2023-03-25T16:04:04.556Z,15.6
2023-03-25T16:09:55.953Z,16.1
2023-03-25T16:15:47.406Z,16.8
2023-03-25T16:21:08.938Z,16.4
2023-03-25T16:27:02.516Z,16.8
2023-03-25T16:32:41.298Z,15.8
2023-03-25T16:38:17.090Z,15.3
2023-03-25T16:43:53.406Z,15.2
2023-03-25T16:49:31.232Z,14.9
2023-03-25T16:55:06.958Z,14.5
2023-03-25T17:00:59.202Z,14.2
2023-03-25T17:06:52.294Z,14.2
2023-03-25T17:12:43.404Z,14
2023-03-25T17:18:22.919Z,13.8
2023-03-25T17:24:00.050Z,14.1
2023-03-25T17:29:51.903Z,13.6
2023-03-25T17:35:45.561Z,13.4
2023-03-25T17:41:22.038Z,13.2
2023-03-25T17:47:15.626Z,13.1
2023-03-25T17:53:06.597Z,12.9
2023-03-25T17:58:58.095Z,12.5
2023-03-25T18:04:50.710Z,12.3
2023-03-25T18:10:41.793Z,12.2
2023-03-25T18:16:33.023Z,12.1
2023-03-25T18:22:19.559Z,12.1
2023-03-25T18:28:13.570Z,11.1
2023-03-25T18:34:04.995Z,10.8
2023-03-25T18:39:56.975Z,10.6
2023-03-25T18:45:32.643Z,10.8
2023-03-25T18:51:24.433Z,10.8
2023-03-25T18:56:59.838Z,10.8
2023-03-25T19:02:51.737Z,10.8
2023-03-25T19:08:57.264Z,10.5
2023-03-25T19:15:01.341Z,10.3
2023-03-25T19:21:01.176Z,10.2
2023-03-25T19:26:52.136Z,9.9
2023-03-25T19:32:44.293Z,10
2023-03-25T19:38:37.114Z,10
2023-03-25T19:44:13.751Z,9.9
2023-03-25T19:50:05.449Z,9.7
2023-03-25T19:55:41.815Z,9.6
2023-03-25T20:01:33.735Z,9.3
2023-03-25T20:07:10.859Z,9.3
2023-03-25T20:13:11.948Z,9.1
2023-03-25T20:18:48.742Z,9.4
2023-03-25T20:24:39.409Z,9.2
2023-03-25T20:35:47.617Z,9
2023-03-25T20:41:55.947Z,9.3
2023-03-25T20:47:46.856Z,8.8
2023-03-25T20:53:38.717Z,8.9
2023-03-25T20:59:31.512Z,8.9
2023-03-25T21:05:07.787Z,8.9
2023-03-25T21:11:11.755Z,8.9
2023-03-25T21:17:13.793Z,9.8
2023-03-25T21:23:07.877Z,10.5
2023-03-25T21:28:46.129Z,10.5
2023-03-25T21:34:40.885Z,10.8
2023-03-25T21:40:39.212Z,10.8
2023-03-25T21:46:40.870Z,10.8
2023-03-25T21:52:32.984Z,10.8
2023-03-25T21:57:56.262Z,10.9
2023-03-25T22:09:10.126Z,11
2023-03-25T22:15:00.915Z,11.2
2023-03-25T22:20:53.420Z,11.2
2023-03-25T22:26:47.963Z,11.3
2023-03-25T22:32:23.910Z,11.4
2023-03-25T22:38:15.325Z,11.3
2023-03-25T22:43:51.760Z,11.2
2023-03-25T22:49:43.985Z,11.3
2023-03-25T22:55:36.555Z,11.5
2023-03-25T23:01:29.086Z,11
2023-03-25T23:06:57.228Z,10.7
2023-03-25T23:12:36.698Z,10.4
2023-03-25T23:18:30.001Z,10.2
2023-03-25T23:24:09.932Z,9.9
2023-03-25T23:30:01.316Z,9.6
2023-03-25T23:35:53.619Z,9.6
2023-03-25T23:41:29.980Z,9.6
2023-03-25T23:47:22.568Z,9.4
2023-03-25T23:52:43.091Z,9.3
2023-03-25T23:58:19.100Z,9.2
